createdAt,value
2023-03-04T00:03:28.819Z,36.77
2023-03-04T00:08:50.660Z,29.63
2023-03-04T00:14:12.278Z,32.20
2023-03-04T00:19:35.166Z,27.47
2023-03-04T00:24:56.621Z,31.67
2023-03-04T00:30:18.456Z,33.13
2023-03-04T00:35:39.983Z,33.67
2023-03-04T00:41:01.525Z,20.97
2023-03-04T00:46:23.233Z,29.13
2023-03-04T00:51:47.063Z,27.40
2023-03-04T00:57:08.380Z,34.03
2023-03-04T01:02:30.259Z,32.03
2023-03-04T01:07:51.727Z,33.77
2023-03-04T01:13:13.429Z,26.10
2023-03-04T01:18:35.239Z,28.47
2023-03-04T01:23:57.320Z,28.93
2023-03-04T01:29:19.142Z,34.23
2023-03-04T01:34:41.132Z,27.93
2023-03-04T01:40:03.027Z,33.07
2023-03-04T01:45:24.872Z,30.03
2023-03-04T01:50:46.314Z,24.90
2023-03-04T01:56:30.508Z,33.20
2023-03-04T02:02:01.151Z,28.20
2023-03-04T02:07:23.120Z,29.90
2023-03-04T02:12:45.620Z,29.53
2023-03-04T02:18:27.170Z,30.17
2023-03-04T02:24:10.800Z,30.00
2023-03-04T02:29:35.049Z,31.90
2023-03-04T02:34:57.590Z,30.93
2023-03-04T02:40:31.831Z,30.53
2023-03-04T02:45:54.125Z,31.47
2023-03-04T02:51:15.788Z,30.70
2023-03-04T02:56:37.454Z,32.10
2023-03-04T03:01:59.228Z,36.90
2023-03-04T03:07:21.239Z,29.77
2023-03-04T03:12:43.805Z,30.67
2023-03-04T03:18:06.585Z,33.97
2023-03-04T03:23:28.032Z,29.83
2023-03-04T03:28:49.537Z,27.37
2023-03-04T03:34:11.128Z,26.70
2023-03-04T03:39:32.662Z,27.40
2023-03-04T03:44:54.342Z,25.13
2023-03-04T03:50:16.024Z,32.27
2023-03-04T03:55:37.505Z,33.87
2023-03-04T04:00:59.230Z,33.13
2023-03-04T04:06:21.039Z,32.90
2023-03-04T04:11:42.564Z,32.40
2023-03-04T04:17:04.393Z,35.37
2023-03-04T04:22:26.032Z,32.33
2023-03-04T04:27:47.658Z,36.80
2023-03-04T04:33:10.778Z,33.70
2023-03-04T04:38:32.330Z,29.90
2023-03-04T04:43:54.283Z,31.20
2023-03-04T04:49:16.052Z,35.47
2023-03-04T04:54:37.570Z,34.10
2023-03-04T04:59:59.182Z,37.20
2023-03-04T05:05:20.703Z,30.30
2023-03-04T05:10:42.305Z,33.57
2023-03-04T05:16:04.551Z,39.13
2023-03-04T05:21:26.299Z,37.87
2023-03-04T05:26:48.139Z,35.63
2023-03-04T05:32:09.735Z,41.73
2023-03-04T05:37:31.423Z,37.97
2023-03-04T05:42:53.290Z,34.77
2023-03-04T05:48:14.838Z,39.73
2023-03-04T05:53:41.328Z,39.70
2023-03-04T05:59:02.711Z,37.47
2023-03-04T06:04:24.209Z,36.77
2023-03-04T06:09:45.995Z,35.27
2023-03-04T06:15:10.208Z,33.97
2023-03-04T06:20:32.212Z,37.33
2023-03-04T06:25:58.948Z,38.57
2023-03-04T06:31:20.585Z,34.83
2023-03-04T06:36:42.162Z,37.33
2023-03-04T06:42:03.881Z,37.97
2023-03-04T06:47:25.649Z,38.20
2023-03-04T06:52:47.621Z,36.17
2023-03-04T06:58:09.162Z,41.50
2023-03-04T07:03:30.798Z,38.67
2023-03-04T07:08:52.983Z,46.33
2023-03-04T07:14:14.582Z,48.00
2023-03-04T07:19:36.072Z,47.70
2023-03-04T07:24:57.841Z,42.00
2023-03-04T07:30:19.447Z,44.77
2023-03-04T07:35:41.752Z,40.70
2023-03-04T07:41:03.861Z,38.47
2023-03-04T07:46:25.758Z,48.47
2023-03-04T07:51:47.784Z,36.53
2023-03-04T07:57:09.428Z,38.20
2023-03-04T08:02:31.122Z,39.47
2023-03-04T08:07:52.808Z,34.50
2023-03-04T08:13:14.586Z,32.83
2023-03-04T08:18:36.357Z,33.43
2023-03-04T08:24:08.351Z,27.63
2023-03-04T08:29:30.561Z,29.43
2023-03-04T08:34:52.102Z,32.43
2023-03-04T08:40:14.888Z,32.10
2023-03-04T08:45:36.390Z,26.90
2023-03-04T08:50:57.798Z,28.97
2023-03-04T08:56:19.654Z,28.77
2023-03-04T09:01:43.945Z,27.10
2023-03-04T09:07:06.131Z,34.70
2023-03-04T09:12:27.722Z,26.10
2023-03-04T09:17:49.193Z,28.47
2023-03-04T09:23:10.957Z,28.40
2023-03-04T09:28:32.568Z,18.30
2023-03-04T09:33:55.448Z,28.60
2023-03-04T09:39:16.750Z,21.27
2023-03-04T09:44:42.198Z,22.73
2023-03-04T09:50:08.537Z,21.07
2023-03-04T09:55:38.155Z,25.10
2023-03-04T10:01:09.909Z,24.87
2023-03-04T10:06:32.702Z,25.40
2023-03-04T10:12:05.064Z,18.40
2023-03-04T10:17:43.443Z,18.30
2023-03-04T10:23:14.981Z,22.50
2023-03-04T10:28:37.838Z,16.87
2023-03-04T10:33:59.290Z,26.33
2023-03-04T10:39:50.057Z,18.60
2023-03-04T10:45:26.418Z,21.50
2023-03-04T10:50:48.086Z,19.83
2023-03-04T10:56:53.975Z,22.17
2023-03-04T11:02:34.304Z,19.00
2023-03-04T11:07:59.330Z,16.33
2023-03-04T11:13:26.364Z,19.33
2023-03-04T11:18:53.421Z,17.90
2023-03-04T11:24:29.131Z,18.63
2023-03-04T11:30:10.785Z,19.87
2023-03-04T11:35:43.215Z,16.47
2023-03-04T11:41:16.879Z,15.43
2023-03-04T11:47:17.089Z,20.87
2023-03-04T11:53:06.709Z,14.17
2023-03-04T11:59:09.977Z,13.87
2023-03-04T12:04:47.637Z,16.53
2023-03-04T12:10:24.851Z,16.63
2023-03-04T12:15:49.389Z,16.13
2023-03-04T12:21:17.058Z,7.87
2023-03-04T12:26:46.052Z,17.60
2023-03-04T12:32:37.359Z,9.50
2023-03-04T12:38:28.564Z,10.47
2023-03-04T12:44:22.689Z,8.00
2023-03-04T12:50:08.848Z,5.27
2023-03-04T12:55:38.653Z,7.00
2023-03-04T13:01:23.853Z,8.80
2023-03-04T13:07:23.203Z,5.80
2023-03-04T13:12:51.952Z,4.20
2023-03-04T13:18:39.648Z,9.00
2023-03-04T13:24:42.918Z,5.30
2023-03-04T13:30:24.746Z,4.10
2023-03-04T13:36:02.326Z,5.40
2023-03-04T13:41:55.533Z,6.10
2023-03-04T13:47:22.664Z,6.20
2023-03-04T13:52:44.579Z,5.67
2023-03-04T13:58:27.383Z,5.77
2023-03-04T14:03:49.143Z,5.03
2023-03-04T14:09:16.293Z,5.43
2023-03-04T14:14:47.826Z,7.30
2023-03-04T14:20:24.585Z,3.80
2023-03-04T14:25:48.572Z,5.57
2023-03-04T14:31:17.638Z,4.50
2023-03-04T14:36:39.313Z,8.50
2023-03-04T14:42:07.970Z,2.87
2023-03-04T14:47:40.873Z,5.07
2023-03-04T14:53:08.594Z,5.67
2023-03-04T14:58:32.865Z,4.53
2023-03-04T15:04:08.073Z,6.07
2023-03-04T15:09:29.782Z,7.77
2023-03-04T15:14:54.684Z,5.67
2023-03-04T15:20:26.818Z,10.60
2023-03-04T15:25:54.046Z,4.63
2023-03-04T15:31:21.214Z,6.27
2023-03-04T15:36:46.624Z,5.27
2023-03-04T15:42:12.651Z,8.53
2023-03-04T15:47:34.626Z,8.00
2023-03-04T15:53:02.197Z,7.97
2023-03-04T15:58:23.951Z,7.37
2023-03-04T16:03:45.509Z,7.07
2023-03-04T16:09:10.604Z,7.17
2023-03-04T16:14:32.133Z,8.87
2023-03-04T16:19:53.789Z,12.43
2023-03-04T16:25:17.581Z,11.37
2023-03-04T16:30:39.726Z,14.80
2023-03-04T16:36:01.482Z,12.90
2023-03-04T16:41:28.965Z,11.17
2023-03-04T16:46:50.699Z,9.30
2023-03-04T16:52:23.981Z,9.53
2023-03-04T16:57:45.929Z,7.80
2023-03-04T17:03:10.547Z,9.03
2023-03-04T17:08:32.080Z,17.73
2023-03-04T17:13:54.228Z,17.77
2023-03-04T17:19:16.050Z,17.57
2023-03-04T17:24:37.342Z,16.63
2023-03-04T17:29:58.937Z,16.27
2023-03-04T17:35:20.703Z,18.63
2023-03-04T17:40:43.046Z,20.73
2023-03-04T17:46:14.149Z,38.53
2023-03-04T17:51:39.824Z,18.10
2023-03-04T17:57:01.345Z,20.47
2023-03-04T18:02:23.119Z,16.63
2023-03-04T18:07:44.850Z,25.30
2023-03-04T18:13:06.567Z,21.03
2023-03-04T18:18:28.188Z,18.70
2023-03-04T18:23:50.008Z,20.03
2023-03-04T18:29:11.582Z,21.80
2023-03-04T18:34:33.369Z,14.60
2023-03-04T18:39:54.969Z,15.50
2023-03-04T18:45:17.612Z,13.70
2023-03-04T18:50:39.406Z,15.47
2023-03-04T18:56:11.378Z,12.50
2023-03-04T19:01:34.464Z,12.50
2023-03-04T19:06:56.375Z,10.40
2023-03-04T19:12:18.121Z,8.37
2023-03-04T19:17:40.572Z,13.70
2023-03-04T19:23:02.010Z,13.67
2023-03-04T19:28:24.424Z,12.93
2023-03-04T19:33:45.950Z,9.37
2023-03-04T19:39:08.694Z,14.40
2023-03-04T19:44:30.906Z,10.23
2023-03-04T19:49:52.222Z,11.40
2023-03-04T19:55:13.976Z,10.30
2023-03-04T20:00:36.913Z,10.83
2023-03-04T20:06:09.218Z,14.13
2023-03-04T20:11:31.837Z,11.83
2023-03-04T20:16:53.283Z,18.53
2023-03-04T20:22:15.056Z,10.30
2023-03-04T20:27:36.791Z,13.43
2023-03-04T20:32:58.467Z,10.97
2023-03-04T20:38:20.172Z,21.10
2023-03-04T20:43:42.002Z,25.77
2023-03-04T20:49:06.730Z,10.30
2023-03-04T20:54:28.257Z,13.53
2023-03-04T20:59:50.105Z,10.93
2023-03-04T21:05:11.671Z,24.67
2023-03-04T21:10:36.093Z,17.00
2023-03-04T21:15:58.800Z,15.30
2023-03-04T21:21:24.803Z,8.40
2023-03-04T21:26:47.785Z,10.20
2023-03-04T21:32:23.919Z,25.40
2023-03-04T21:37:46.890Z,14.23
2023-03-04T21:43:08.331Z,16.07
2023-03-04T21:48:30.093Z,20.13
2023-03-04T21:53:51.610Z,21.03
2023-03-04T21:59:14.539Z,12.50
2023-03-04T22:04:35.945Z,9.27
2023-03-04T22:10:00.510Z,16.80
2023-03-04T22:15:22.198Z,16.27
2023-03-04T22:20:45.337Z,13.80
2023-03-04T22:26:15.007Z,16.77
2023-03-04T22:31:38.111Z,16.20
2023-03-04T22:36:59.999Z,12.53
2023-03-04T22:42:21.655Z,15.27
2023-03-04T22:47:54.134Z,17.13
2023-03-04T22:53:15.772Z,18.93
2023-03-04T22:58:37.527Z,17.83
2023-03-04T23:03:59.371Z,27.13
2023-03-04T23:09:20.590Z,19.57
2023-03-04T23:14:44.894Z,16.47
2023-03-04T23:20:06.941Z,14.70
2023-03-04T23:25:28.750Z,24.80
2023-03-04T23:30:50.584Z,13.03
2023-03-04T23:36:15.264Z,21.90
2023-03-04T23:41:37.243Z,15.80
2023-03-04T23:46:58.621Z,12.53
2023-03-04T23:52:20.284Z,14.03
2023-03-04T23:57:42.101Z,12.10
